Time;durP1;ratioP1;P1;durP2;ratioP2;P2;SDS_P1;SDS_P2;PMS_P1;PMS_P2;Temp;Humidity;BMP_temperature;BMP_pressure;BME280_temperature;BME280_humidity;BME280_pressure;Samples;Min_cycle;Max_cycle;Signal;HPM_P1;HPM_P2
2023/11/28 00:00:05;;;;;;;10.00;7.37;;;;;;;24.00;35.93;97915.19;4346541;33;34380;-59
2023/11/28 00:02:38;;;;;;;12.25;7.72;;;;;;;23.99;36.00;97916.28;4346755;33;34091;-59
2023/11/28 00:05:06;;;;;;;10.10;6.40;;;;;;;23.98;36.08;97901.03;4346772;33;33892;-58
2023/11/28 00:07:34;;;;;;;10.40;6.50;;;;;;;23.99;36.07;97899.13;4347014;33;33777;-59
2023/11/28 00:10:01;;;;;;;11.10;7.05;;;;;;;23.98;36.08;97901.03;4346795;33;33659;-59
2023/11/28 00:12:29;;;;;;;10.10;7.00;;;;;;;23.98;36.09;97897.50;4346664;33;34858;-58
2023/11/28 00:14:57;;;;;;;11.63;7.30;;;;;;;23.98;36.07;97892.88;4346421;33;35050;-57
2023/11/28 00:17:24;;;;;;;9.10;6.53;;;;;;;23.97;36.13;97888.50;4346645;33;34774;-59
2023/11/28 00:19:52;;;;;;;12.48;7.53;;;;;;;23.96;36.44;97894.22;4346444;33;33934;-59
2023/11/28 00:22:20;;;;;;;13.25;6.68;;;;;;;23.95;36.31;97890.69;4346829;33;33479;-55
2023/11/28 00:24:47;;;;;;;10.95;6.90;;;;;;;23.95;36.31;97879.78;4346815;33;33688;-57
2023/11/28 00:27:15;;;;;;;10.70;6.40;;;;;;;23.94;36.29;97875.44;4347188;32;34674;-60
2023/11/28 00:29:42;;;;;;;11.65;7.10;;;;;;;23.93;36.45;97862.91;4345417;33;34548;-58
2023/11/28 00:32:10;;;;;;;12.07;7.10;;;;;;;23.92;36.59;97873.00;4349713;32;34858;-58
2023/11/28 00:34:37;;;;;;;11.23;7.22;;;;;;;23.91;36.49;97865.91;4345589;33;34045;-59
2023/11/28 00:37:05;;;;;;;14.00;6.93;;;;;;;23.90;36.54;97868.91;4346765;33;34039;-58
2023/11/28 00:39:33;;;;;;;10.38;6.95;;;;;;;23.89;36.54;97870.81;4359774;32;34193;-57
2023/11/28 00:42:03;;;;;;;10.45;6.95;;;;;;;23.88;36.49;97850.13;4360991;32;33978;-57
2023/11/28 00:44:31;;;;;;;11.18;6.90;;;;;;;23.89;36.37;97861.84;4348205;33;33992;-59
2023/11/28 00:46:59;;;;;;;10.30;6.80;;;;;;;23.87;36.32;97848.47;4348237;33;34439;-59
2023/11/28 00:49:27;;;;;;;15.68;7.10;;;;;;;23.88;36.38;97847.41;4347897;33;34244;-56
2023/11/28 00:51:54;;;;;;;10.75;6.72;;;;;;;23.88;36.36;97839.22;4348147;33;34138;-59
2023/11/28 00:54:22;;;;;;;9.10;6.32;;;;;;;23.88;36.34;97838.41;4351109;32;34033;-56
2023/11/28 00:56:50;;;;;;;9.23;6.03;;;;;;;23.87;36.28;97834.84;4362862;32;33802;-59
2023/11/28 00:59:17;;;;;;;13.48;7.25;;;;;;;23.87;36.33;97831.31;4363076;32;33457;-58
2023/11/28 01:01:45;;;;;;;10.95;6.32;;;;;;;23.87;36.25;97823.16;4362959;32;33604;-56
2023/11/28 01:04:13;;;;;;;11.50;6.18;;;;;;;23.86;36.30;97807.91;4362763;32;34534;-56
2023/11/28 01:06:40;;;;;;;9.52;6.80;;;;;;;23.87;36.30;97804.09;4354775;32;34068;-57
2023/11/28 01:09:08;;;;;;;11.20;6.53;;;;;;;23.86;36.45;97792.38;4348313;33;33530;-56
2023/11/28 01:11:36;;;;;;;10.75;6.55;;;;;;;23.84;36.36;97788.31;4347905;33;34026;-57
2023/11/28 01:14:04;;;;;;;9.05;6.15;;;;;;;23.84;36.34;97794.56;4348044;33;34697;-59
2023/11/28 01:16:31;;;;;;;10.55;6.82;;;;;;;23.85;36.38;97787.22;4335966;32;33979;-57
2023/11/28 01:18:59;;;;;;;14.02;7.03;;;;;;;23.84;36.36;97772.78;4332631;33;34393;-58
2023/11/28 01:21:27;;;;;;;9.75;6.10;;;;;;;23.83;36.48;97771.16;4332402;33;33606;-59
2023/11/28 01:23:54;;;;;;;11.52;6.15;;;;;;;23.83;36.53;97767.63;4341966;33;34300;-57
2023/11/28 01:26:22;;;;;;;9.52;6.45;;;;;;;23.82;36.48;97761.34;4348033;33;34055;-59
2023/11/28 01:28:50;;;;;;;10.02;6.30;;;;;;;23.81;36.47;97757.00;4347946;33;33107;-57
2023/11/28 01:31:17;;;;;;;10.25;6.90;;;;;;;23.81;36.39;97751.53;4347998;33;34704;-58
2023/11/28 01:33:45;;;;;;;10.90;6.43;;;;;;;23.81;36.47;97742.56;4347696;33;35164;-58
2023/11/28 01:36:13;;;;;;;8.95;6.00;;;;;;;23.80;36.52;97738.22;4347807;33;34542;-58
2023/11/28 01:38:40;;;;;;;11.57;6.82;;;;;;;23.80;36.54;97738.22;4348206;33;33329;-59
2023/11/28 01:41:08;;;;;;;10.00;6.35;;;;;;;23.79;36.58;97731.16;4347398;33;34815;-59
2023/11/28 01:43:36;;;;;;;8.93;5.70;;;;;;;23.79;36.59;97721.06;4347656;33;33893;-58
2023/11/28 01:46:04;;;;;;;8.77;5.90;;;;;;;23.78;36.59;97724.03;4345030;33;35346;-59
2023/11/28 01:48:31;;;;;;;10.32;6.50;;;;;;;23.78;36.54;97721.31;4333987;33;33502;-56
2023/11/28 01:50:59;;;;;;;10.00;6.05;;;;;;;23.77;36.54;97716.97;4334709;33;34023;-56
2023/11/28 01:53:27;;;;;;;12.27;6.00;;;;;;;23.77;36.54;97706.91;4334598;33;34023;-58
2023/11/28 01:55:55;;;;;;;12.73;5.87;;;;;;;23.78;36.67;97704.97;4333982;33;33882;-59
2023/11/28 01:58:22;;;;;;;10.60;5.68;;;;;;;23.76;36.67;97701.75;4322229;33;34421;-57
2023/11/28 02:00:50;;;;;;;9.63;6.12;;;;;;;23.75;36.73;97694.66;4347512;33;33956;-57
2023/11/28 02:03:17;;;;;;;9.40;6.05;;;;;;;23.73;36.77;97694.94;4347552;33;34065;-59
2023/11/28 02:05:45;;;;;;;10.43;6.22;;;;;;;23.75;36.77;97675.63;4334424;33;33556;-58
2023/11/28 02:08:13;;;;;;;11.05;5.90;;;;;;;23.72;36.75;97670.72;4347690;33;33639;-57
2023/11/28 02:10:41;;;;;;;8.95;6.30;;;;;;;23.71;36.87;97666.38;4347905;33;33644;-57
2023/11/28 02:13:08;;;;;;;8.55;5.60;;;;;;;23.70;36.97;97660.13;4347581;33;34521;-58
2023/11/28 02:15:39;;;;;;;;;;;;;;;23.70;36.91;97653.84;4347714;33;34830;-59
2023/11/28 02:18:08;;;;;;;12.25;6.18;;;;;;;23.79;36.71;97652.19;4347938;33;33872;-59
2023/11/28 02:20:37;;;;;;;7.93;5.18;;;;;;;23.70;36.87;97642.97;4347542;33;33950;-57
2023/11/28 02:23:06;;;;;;;17.12;5.47;;;;;;;23.68;36.94;97643.22;4334035;33;33707;-57
2023/11/28 02:25:44;;;;;;;9.30;5.97;;;;;;;23.65;37.04;97635.63;4347596;33;34045;-57
2023/11/28 02:28:22;;;;;;;9.98;5.57;;;;;;;23.64;37.18;97634.81;4334890;33;33120;-55
2023/11/28 02:30:49;;;;;;;10.07;5.37;;;;;;;23.64;37.17;97628.53;4347586;33;34756;-57
2023/11/28 02:33:17;;;;;;;9.35;5.80;;;;;;;23.62;37.19;97617.91;4347546;33;34157;-58
2023/11/28 02:35:45;;;;;;;8.45;5.68;;;;;;;23.62;37.10;97622.53;4347233;33;34073;-58
2023/11/28 02:38:13;;;;;;;9.05;5.47;;;;;;;23.61;37.07;97624.44;4347437;33;34200;-55
2023/11/28 02:40:41;;;;;;;9.48;5.53;;;;;;;23.61;36.97;97616.28;4347406;33;33738;-58
2023/11/28 02:43:09;;;;;;;8.63;5.62;;;;;;;23.61;37.09;97612.75;4347118;33;33903;-58
2023/11/28 02:45:36;;;;;;;10.90;5.53;;;;;;;23.61;37.10;97604.59;4347254;33;34466;-59
2023/11/28 02:48:04;;;;;;;9.82;5.97;;;;;;;23.61;37.09;97608.13;4347708;33;33783;-59
2023/11/28 02:50:31;;;;;;;13.10;6.20;;;;;;;23.59;37.12;97591.25;4333927;33;33943;-58
2023/11/28 02:52:59;;;;;;;11.38;5.45;;;;;;;23.59;37.09;97604.84;4347296;33;34107;-58
2023/11/28 02:55:27;;;;;;;12.77;6.30;;;;;;;23.58;37.24;97596.97;4347393;33;33602;-59
2023/11/28 02:57:54;;;;;;;7.82;5.40;;;;;;;23.57;37.20;97588.00;4346942;33;33623;-59
2023/11/28 03:00:22;;;;;;;13.88;5.18;;;;;;;23.57;37.16;97593.44;4347363;33;33846;-60
2023/11/28 03:02:50;;;;;;;12.15;5.78;;;;;;;23.56;37.17;97591.81;4347233;33;34855;-59
2023/11/28 03:05:17;;;;;;;13.62;7.00;;;;;;;23.55;37.27;97587.47;4347072;33;33952;-60
2023/11/28 03:07:45;;;;;;;8.45;5.25;;;;;;;23.54;37.26;97585.81;4347297;33;34291;-59
2023/11/28 03:10:13;;;;;;;9.23;5.93;;;;;;;23.54;37.27;97582.28;4347204;33;33759;-59
2023/11/28 03:12:40;;;;;;;8.30;5.28;;;;;;;23.53;37.24;97573.31;4347060;33;33682;-58
2023/11/28 03:15:08;;;;;;;9.80;5.22;;;;;;;23.53;37.28;97580.66;4347565;33;33999;-58
2023/11/28 03:17:36;;;;;;;10.77;5.90;;;;;;;23.52;37.40;97571.69;4347230;33;33460;-58
2023/11/28 03:20:04;;;;;;;8.43;5.68;;;;;;;23.52;37.38;97568.16;4347088;33;34682;-59
2023/11/28 03:22:32;;;;;;;9.90;5.10;;;;;;;23.51;37.45;97561.91;4347231;33;33736;-59
2023/11/28 03:25:11;;;;;;;10.45;5.35;;;;;;;23.51;37.24;97561.91;4347152;33;34056;-59
2023/11/28 03:27:39;;;;;;;7.80;5.00;;;;;;;23.51;37.48;97558.38;4347195;33;33167;-58
2023/11/28 03:30:06;;;;;;;7.25;5.05;;;;;;;23.50;37.62;97564.88;4347083;33;34098;-58
2023/11/28 03:32:35;;;;;;;12.20;6.00;;;;;;;23.49;37.63;97561.34;4346826;33;34182;-58
2023/11/28 03:35:03;;;;;;;9.85;5.78;;;;;;;23.48;37.59;97557.00;4346867;33;34138;-58
2023/11/28 03:37:31;;;;;;;7.87;5.32;;;;;;;23.48;37.54;97557.00;4347081;33;33825;-58
2023/11/28 03:39:59;;;;;;;9.68;5.07;;;;;;;23.48;37.51;97557.00;4347178;33;34005;-58
2023/11/28 03:42:26;;;;;;;9.20;5.87;;;;;;;23.47;37.67;97560.03;4346773;33;35615;-57
2023/11/28 03:44:54;;;;;;;10.35;5.78;;;;;;;23.47;37.71;97551.84;4347053;33;34517;-52
2023/11/28 03:47:21;;;;;;;11.10;5.37;;;;;;;23.46;37.70;97550.25;4347027;33;33492;-57
2023/11/28 03:49:49;;;;;;;10.98;5.55;;;;;;;23.46;37.76;97547.50;4347013;33;33733;-55
2023/11/28 03:52:17;;;;;;;8.07;5.53;;;;;;;23.45;37.75;97545.88;4347001;33;33861;-58
2023/11/28 03:54:46;;;;;;;9.95;5.45;;;;;;;23.43;37.61;97536.09;4346782;33;34255;-58
2023/11/28 03:57:13;;;;;;;11.40;5.25;;;;;;;23.44;37.65;97531.44;4346992;33;33171;-57
2023/11/28 03:59:41;;;;;;;8.15;5.28;;;;;;;23.44;37.61;97528.72;4346715;33;33853;-57
2023/11/28 04:02:08;;;;;;;8.75;5.30;;;;;;;23.43;37.54;97527.91;4346641;33;34147;-59
2023/11/28 04:04:38;;;;;;;8.90;5.00;;;;;;;23.44;37.66;97526.00;4346871;33;33674;-58
2023/11/28 04:07:06;;;;;;;17.08;5.80;;;;;;;23.43;37.60;97527.91;4347067;33;32782;-58
2023/11/28 04:09:34;;;;;;;8.98;5.45;;;;;;;23.42;37.66;97520.84;4345690;33;33856;-56
2023/11/28 04:12:02;;;;;;;8.13;4.60;;;;;;;23.43;37.58;97516.22;4346598;33;34908;-59
2023/11/28 04:14:30;;;;;;;9.40;5.30;;;;;;;23.42;37.69;97514.59;4346728;33;34716;-56
2023/11/28 04:16:57;;;;;;;7.40;4.90;;;;;;;23.40;37.72;97506.69;4346833;33;33571;-57
2023/11/28 04:19:25;;;;;;;10.98;5.37;;;;;;;23.40;37.75;97503.97;4346617;33;34163;-58
2023/11/28 04:21:53;;;;;;;8.68;5.03;;;;;;;23.39;37.71;97499.63;4346871;33;34002;-60
2023/11/28 04:24:21;;;;;;;10.10;5.45;;;;;;;23.39;37.74;97498.81;4346537;33;34808;-58
2023/11/28 04:26:49;;;;;;;8.00;4.60;;;;;;;23.39;37.69;97493.37;4346753;33;33220;-59
2023/11/28 04:29:18;;;;;;;8.38;5.10;;;;;;;23.39;37.71;97496.09;4346728;33;34715;-58
2023/11/28 04:31:47;;;;;;;8.40;4.87;;;;;;;23.38;37.73;97491.75;4346741;33;34016;-58
2023/11/28 04:34:15;;;;;;;8.60;5.22;;;;;;;23.38;37.77;97489.03;4346697;33;34075;-59
2023/11/28 04:36:43;;;;;;;8.27;4.93;;;;;;;23.37;37.73;97490.16;4346272;33;33501;-57
2023/11/28 04:39:11;;;;;;;9.23;5.47;;;;;;;23.36;37.65;97488.50;4346589;33;34265;-58
2023/11/28 04:41:40;;;;;;;9.35;5.78;;;;;;;23.36;37.65;97488.50;4346641;33;35117;-58
2023/11/28 04:44:08;;;;;;;10.23;5.18;;;;;;;23.36;37.80;97491.22;4346265;33;33795;-58
2023/11/28 04:46:35;;;;;;;8.60;5.43;;;;;;;23.35;37.80;97479.53;4346581;33;33632;-57
2023/11/28 04:49:03;;;;;;;9.18;4.97;;;;;;;23.34;37.89;97472.47;4346577;33;34120;-55
2023/11/28 04:51:31;;;;;;;8.93;5.18;;;;;;;23.33;37.81;97476.28;4346308;33;33718;-57
2023/11/28 04:53:58;;;;;;;8.35;4.68;;;;;;;23.33;37.79;97476.28;4346188;33;34074;-59
2023/11/28 04:56:26;;;;;;;8.52;4.80;;;;;;;23.33;37.69;97461.88;4346378;33;34286;-56
2023/11/28 04:58:54;;;;;;;7.53;4.90;;;;;;;23.33;37.63;97470.03;4346027;33;34702;-58
2023/11/28 05:01:22;;;;;;;10.07;5.10;;;;;;;23.33;37.77;97459.16;4346110;33;34053;-57
2023/11/28 05:03:50;;;;;;;8.48;4.95;;;;;;;23.32;37.88;97465.69;4345999;33;34486;-57
2023/11/28 05:06:18;;;;;;;6.75;4.60;;;;;;;23.30;37.93;97460.50;4345868;33;33609;-59
2023/11/28 05:08:46;;;;;;;7.15;4.75;;;;;;;23.30;37.90;97449.63;4346248;33;33413;-58
2023/11/28 05:11:13;;;;;;;8.52;4.85;;;;;;;23.30;37.80;97448.81;4345923;33;34092;-58
2023/11/28 05:13:41;;;;;;;10.80;5.37;;;;;;;23.29;37.76;97445.28;4345579;33;34102;-58
2023/11/28 05:16:08;;;;;;;11.27;5.35;;;;;;;23.29;37.90;97444.47;4346012;33;34100;-59
2023/11/28 05:18:36;;;;;;;8.45;5.10;;;;;;;23.28;37.91;97437.41;4346125;33;33842;-58
2023/11/28 05:21:04;;;;;;;7.20;4.72;;;;;;;23.29;37.96;97439.84;4346610;33;34803;-57
2023/11/28 05:23:31;;;;;;;8.25;4.60;;;;;;;23.28;37.97;97440.13;4348182;33;34107;-56
2023/11/28 05:25:59;;;;;;;7.15;4.50;;;;;;;23.26;37.96;97429.50;4347969;33;34387;-57
2023/11/28 05:28:26;;;;;;;7.00;4.45;;;;;;;23.27;37.79;97424.87;4348048;33;33666;-59
2023/11/28 05:30:54;;;;;;;9.43;4.90;;;;;;;23.29;37.72;97428.16;4348117;33;33616;-57
2023/11/28 05:33:22;;;;;;;8.10;4.50;;;;;;;23.27;37.87;97427.59;4348012;33;34863;-58
2023/11/28 05:35:50;;;;;;;8.60;5.22;;;;;;;23.27;37.92;97433.88;4347810;33;33564;-58
2023/11/28 05:38:18;;;;;;;11.00;5.03;;;;;;;23.26;38.07;97423.25;4348017;33;34856;-57
2023/11/28 05:40:45;;;;;;;7.55;4.68;;;;;;;23.26;37.94;97420.53;4347910;33;34027;-59
2023/11/28 05:43:14;;;;;;;14.98;4.68;;;;;;;23.25;37.90;97419.72;4334265;33;34585;-58
2023/11/28 05:45:41;;;;;;;10.43;4.35;;;;;;;23.25;37.98;97416.19;4347967;33;33266;-56
2023/11/28 05:48:09;;;;;;;8.02;4.85;;;;;;;23.24;38.09;97412.66;4347827;33;34126;-56
2023/11/28 05:50:37;;;;;;;8.13;4.68;;;;;;;23.24;38.08;97411.84;4347836;33;34805;-58
2023/11/28 05:53:04;;;;;;;9.52;4.43;;;;;;;23.23;38.02;97418.41;4347872;33;33491;-59
2023/11/28 05:55:32;;;;;;;10.20;4.90;;;;;;;23.23;38.10;97404.81;4348051;33;33458;-57
2023/11/28 05:58:00;;;;;;;10.70;4.75;;;;;;;23.21;37.99;97410.50;4347834;33;34778;-58
2023/11/28 06:00:27;;;;;;;6.95;4.82;;;;;;;23.21;37.93;97407.78;4347911;33;34299;-58
2023/11/28 06:02:55;;;;;;;8.55;4.57;;;;;;;23.21;37.92;97405.06;4347536;33;34348;-56
2023/11/28 06:05:23;;;;;;;11.23;4.57;;;;;;;23.22;37.90;97400.44;4347458;33;34396;-56
2023/11/28 06:07:50;;;;;;;8.70;4.60;;;;;;;23.21;37.91;97396.91;4347966;33;34052;-54
2023/11/28 06:10:19;;;;;;;6.75;4.40;;;;;;;23.21;37.95;97401.53;4347893;33;33915;-57
2023/11/28 06:12:47;;;;;;;8.27;4.30;;;;;;;23.21;37.96;97402.34;4347589;33;33738;-56
2023/11/28 06:15:14;;;;;;;7.97;4.50;;;;;;;23.21;37.96;97410.50;4347739;33;32649;-54
2023/11/28 06:17:42;;;;;;;9.40;5.07;;;;;;;23.21;37.99;97398.81;4334552;33;33971;-57
2023/11/28 06:20:14;;;;;;;11.25;4.90;;;;;;;23.19;38.08;97393.66;4347890;33;34071;-60
2023/11/28 06:22:44;;;;;;;6.62;4.35;;;;;;;23.20;38.03;97391.75;4347766;33;34725;-56
2023/11/28 06:25:12;;;;;;;8.63;5.07;;;;;;;23.20;37.91;97389.84;4347524;33;33261;-58
2023/11/28 06:27:39;;;;;;;7.72;4.15;;;;;;;23.21;37.89;97398.81;4347485;33;33766;-59
2023/11/28 06:30:08;;;;;;;9.48;4.18;;;;;;;23.21;37.90;97404.25;4347593;33;34135;-58
2023/11/28 06:32:35;;;;;;;7.70;4.25;;;;;;;23.20;38.01;97402.63;4346734;33;33861;-59
2023/11/28 06:35:07;;;;;;;6.37;4.30;;;;;;;23.19;37.96;97401.81;4347564;32;32943;-58
2023/11/28 06:37:35;;;;;;;9.02;4.40;;;;;;;23.19;37.90;97396.38;4347595;33;34043;-58
2023/11/28 06:40:03;;;;;;;9.60;4.47;;;;;;;23.18;37.90;97394.75;4347056;33;34067;-59
2023/11/28 06:42:31;;;;;;;7.03;4.25;;;;;;;23.18;37.93;97397.50;4347135;33;33490;-58
2023/11/28 06:45:01;;;;;;;8.57;4.35;;;;;;;23.19;37.85;97393.66;4347158;33;33755;-58
2023/11/28 06:47:30;;;;;;;7.85;4.60;;;;;;;23.18;37.94;97400.22;4347216;33;34060;-58
2023/11/28 06:49:57;;;;;;;8.65;5.55;;;;;;;23.17;37.97;97396.69;4347105;33;34964;-56
2023/11/28 06:52:25;;;;;;;12.27;4.75;;;;;;;23.16;37.99;97389.59;4347081;33;33947;-63
2023/11/28 06:54:53;;;;;;;14.40;4.50;;;;;;;23.17;37.98;97388.53;4347290;33;33464;-63
2023/11/28 06:57:20;;;;;;;10.60;4.00;;;;;;;23.16;37.67;97378.72;4346964;33;33948;-63
2023/11/28 06:59:48;;;;;;;9.95;4.75;;;;;;;23.14;37.49;97382.81;4347093;33;35018;-63
2023/11/28 07:02:16;;;;;;;8.10;4.25;;;;;;;23.12;37.40;97382.28;4346984;33;33608;-63
2023/11/28 07:04:43;;;;;;;13.93;4.20;;;;;;;23.10;37.34;97374.41;4346848;33;33440;-63
2023/11/28 07:07:11;;;;;;;9.75;4.47;;;;;;;23.08;37.34;97368.44;4346965;33;34213;-63
2023/11/28 07:09:43;;;;;;;8.98;4.43;;;;;;;23.07;37.30;97366.81;4347256;33;34020;-64
2023/11/28 07:12:10;;;;;;;9.18;4.40;;;;;;;23.05;37.31;97373.63;4347170;33;34807;-63
2023/11/28 07:14:38;;;;;;;8.23;4.12;;;;;;;23.03;37.30;97365.75;4347348;33;33636;-64
2023/11/28 07:17:06;;;;;;;14.77;5.00;;;;;;;23.02;37.30;97358.69;4347064;33;34004;-64
2023/11/28 07:19:34;;;;;;;8.32;4.57;;;;;;;23.00;37.30;97360.06;4347147;33;33738;-63
2023/11/28 07:22:02;;;;;;;8.32;4.15;;;;;;;22.99;37.29;97358.44;4346864;33;33731;-64
2023/11/28 07:24:29;;;;;;;7.55;4.40;;;;;;;22.98;37.33;97357.63;4347109;33;33307;-63
2023/11/28 07:26:57;;;;;;;6.93;4.18;;;;;;;22.96;37.38;97351.66;4347067;33;33879;-63
2023/11/28 07:29:25;;;;;;;7.35;3.90;;;;;;;22.97;37.38;97355.19;4346566;33;34483;-64
2023/11/28 07:31:52;;;;;;;7.50;4.53;;;;;;;22.94;37.36;97344.88;4346577;33;33580;-63
2023/11/28 07:34:20;;;;;;;7.65;4.45;;;;;;;22.94;37.31;97355.75;4346763;33;32876;-63
2023/11/28 07:36:49;;;;;;;8.50;4.00;;;;;;;22.90;37.26;97355.53;4346881;33;34827;-63
2023/11/28 07:39:17;;;;;;;7.83;5.07;;;;;;;22.88;37.23;97357.66;4347046;33;34046;-63
2023/11/28 07:41:45;;;;;;;6.57;4.07;;;;;;;22.87;37.20;97351.41;4346824;33;34643;-63
2023/11/28 07:44:12;;;;;;;8.65;4.20;;;;;;;22.86;37.17;97351.69;4332376;33;33738;-63
2023/11/28 07:46:41;;;;;;;8.45;4.50;;;;;;;22.84;37.16;97354.69;4346853;33;33736;-63
2023/11/28 07:49:08;;;;;;;6.95;4.22;;;;;;;22.84;37.16;97351.97;4347014;33;34937;-63
2023/11/28 07:51:36;;;;;;;9.27;4.43;;;;;;;22.84;37.15;97353.88;4346836;33;34480;-63
2023/11/28 07:54:03;;;;;;;7.50;4.20;;;;;;;22.83;37.16;97353.06;4345978;33;33268;-63
2023/11/28 07:56:31;;;;;;;9.55;4.32;;;;;;;22.83;37.11;97352.25;4346879;33;34713;-63
2023/11/28 07:58:59;;;;;;;8.68;4.35;;;;;;;22.83;37.11;97355.78;4346730;33;34847;-63
2023/11/28 08:01:27;;;;;;;7.70;4.37;;;;;;;22.83;37.08;97339.47;4347054;33;34084;-63
2023/11/28 08:03:55;;;;;;;8.68;4.35;;;;;;;22.83;37.12;97342.19;4346835;33;33401;-63
2023/11/28 08:06:25;;;;;;;7.22;4.28;;;;;;;22.83;37.05;97334.03;4346562;33;34152;-63
2023/11/28 08:08:52;;;;;;;6.22;3.70;;;;;;;22.83;37.03;97323.16;4346728;33;34722;-63
2023/11/28 08:11:20;;;;;;;6.45;3.92;;;;;;;22.86;36.94;97327.22;4346832;33;34626;-63
2023/11/28 08:13:48;;;;;;;8.30;4.37;;;;;;;22.85;36.97;97328.34;4346567;33;34309;-63
2023/11/28 08:16:18;;;;;;;8.63;3.92;;;;;;;22.85;36.92;97322.91;4346728;33;34573;-63
2023/11/28 08:18:47;;;;;;;7.22;4.20;;;;;;;22.85;36.94;97317.47;4346573;33;33890;-63
2023/11/28 08:21:14;;;;;;;7.20;3.60;;;;;;;22.86;36.91;97310.91;4346673;33;33911;-63
2023/11/28 08:23:42;;;;;;;7.65;4.20;;;;;;;22.85;36.93;97320.19;4333157;33;33502;-63
2023/11/28 08:26:10;;;;;;;6.70;4.18;;;;;;;22.85;36.91;97309.31;4346406;33;33778;-63
2023/11/28 08:28:37;;;;;;;7.05;4.18;;;;;;;22.85;36.83;97314.75;4346449;33;34050;-63
2023/11/28 08:31:07;;;;;;;8.75;3.67;;;;;;;22.85;36.79;97314.75;4346265;33;33920;-63
2023/11/28 08:33:36;;;;;;;8.05;4.10;;;;;;;22.84;36.80;97313.91;4346369;33;34445;-63
2023/11/28 08:36:04;;;;;;;7.72;4.00;;;;;;;22.85;36.81;97312.03;4346327;33;34668;-63
2023/11/28 08:38:32;;;;;;;7.75;4.28;;;;;;;22.85;36.78;97304.66;4333130;33;34202;-63
2023/11/28 08:41:03;;;;;;;7.40;4.10;;;;;;;22.86;36.74;97310.91;4346191;33;34756;-63
2023/11/28 08:43:31;;;;;;;8.07;3.95;;;;;;;22.86;36.75;97308.19;4346492;33;33416;-63
2023/11/28 08:45:58;;;;;;;8.20;4.28;;;;;;;22.86;36.77;97306.28;4346255;33;34073;-63
2023/11/28 08:48:26;;;;;;;9.70;4.20;;;;;;;22.86;36.79;97292.69;4346018;33;34068;-63
2023/11/28 08:50:53;;;;;;;9.00;3.78;;;;;;;22.88;36.81;97295.13;4346262;33;33875;-63
2023/11/28 08:53:21;;;;;;;13.93;10.95;;;;;;;22.89;36.87;97299.50;4346428;33;32621;-59
2023/11/28 08:55:49;;;;;;;13.30;10.65;;;;;;;22.88;33.80;97295.94;4346304;33;34145;-63
2023/11/28 08:58:16;;;;;;;15.15;11.38;;;;;;;22.69;31.10;97296.88;4348168;33;34108;-59
2023/11/28 09:00:45;;;;;;;11.25;7.85;;;;;;;22.58;31.91;97301.59;4348123;33;34059;-59
2023/11/28 09:03:13;;;;;;;13.80;9.35;;;;;;;22.54;34.02;97295.09;4347984;33;33548;-57
2023/11/28 09:05:40;;;;;;;17.98;9.07;;;;;;;22.58;34.12;97294.25;4348187;33;34049;-59
2023/11/28 09:08:08;;;;;;;11.25;7.93;;;;;;;22.59;34.08;97284.97;4348104;33;33039;-59
2023/11/28 09:10:36;;;;;;;11.57;7.62;;;;;;;22.63;34.08;97283.34;4347853;33;33788;-58
2023/11/28 09:13:04;;;;;;;9.85;7.47;;;;;;;22.74;34.15;97280.53;4348028;33;33528;-58
2023/11/28 09:15:31;;;;;;;9.60;6.53;;;;;;;22.88;34.23;97286.97;4343804;33;34078;-59
2023/11/28 09:17:59;;;;;;;10.73;7.22;;;;;;;22.98;34.26;97278.75;4332987;33;34068;-61
2023/11/28 09:20:26;;;;;;;9.85;6.93;;;;;;;23.09;34.24;97276.78;4348350;32;34199;-60
2023/11/28 09:22:54;;;;;;;9.88;6.90;;;;;;;23.22;34.26;97272.56;4360581;32;33713;-59
2023/11/28 09:25:22;;;;;;;9.15;6.55;;;;;;;23.35;34.24;97278.16;4347511;33;34753;-59
2023/11/28 09:27:49;;;;;;;10.05;6.50;;;;;;;23.49;34.23;97261.97;4347932;33;34802;-60
2023/11/28 09:30:19;;;;;;;8.63;6.00;;;;;;;23.61;34.23;97256.94;4347957;33;34416;-60
2023/11/28 09:32:46;;;;;;;8.65;5.70;;;;;;;23.71;34.19;97250.63;4347853;33;33312;-60
2023/11/28 09:35:14;;;;;;;10.75;6.78;;;;;;;23.83;34.14;97242.84;4347820;33;34799;-59
2023/11/28 09:37:42;;;;;;;9.43;5.70;;;;;;;23.88;34.13;97242.78;4355541;32;34031;-60
2023/11/28 09:40:11;;;;;;;10.60;6.97;;;;;;;23.95;34.10;97245.16;4362748;32;33567;-60
2023/11/28 09:42:38;;;;;;;7.85;5.22;;;;;;;24.01;34.07;97246.69;4362820;32;33628;-60
2023/11/28 09:45:08;;;;;;;10.23;6.40;;;;;;;24.07;34.04;97248.28;4331234;33;33602;-58
2023/11/28 09:47:36;;;;;;;8.40;5.95;;;;;;;24.11;34.03;97241.16;4347560;33;34860;-61
2023/11/28 09:50:12;;;;;;;9.40;5.80;;;;;;;24.14;34.04;97243.25;4347663;33;34119;-60
2023/11/28 09:52:42;;;;;;;8.38;5.50;;;;;;;24.15;34.03;97239.47;4347527;33;33631;-61
2023/11/28 09:55:11;;;;;;;7.27;4.80;;;;;;;24.17;34.03;97229.06;4347750;33;33909;-61
2023/11/28 09:57:41;;;;;;;9.20;5.77;;;;;;;24.19;34.03;97228.75;4322525;33;33772;-60
2023/11/28 10:00:11;;;;;;;;;;;;;;;24.20;34.03;97235.81;4334732;33;33759;-59
2023/11/28 10:02:38;;;;;;;9.17;5.57;;;;;;;24.30;33.90;97235.72;4347532;33;33285;-61
2023/11/28 10:05:08;;;;;;;8.60;5.95;;;;;;;24.23;34.01;97231.72;4347530;33;34719;-61
2023/11/28 10:07:36;;;;;;;10.25;5.55;;;;;;;24.19;34.11;97234.22;4321682;33;34796;-61
2023/11/28 10:10:06;;;;;;;7.00;5.57;;;;;;;24.18;34.13;97229.88;4344508;33;34227;-61
2023/11/28 10:12:36;;;;;;;9.00;6.20;;;;;;;24.16;34.17;97234.81;4347335;33;33623;-61
2023/11/28 10:15:06;;;;;;;9.00;5.53;;;;;;;24.14;34.22;97224.19;4347601;33;33958;-60
2023/11/28 10:17:35;;;;;;;7.75;5.60;;;;;;;24.14;34.24;97223.38;4347597;33;34587;-63
2023/11/28 10:20:06;;;;;;;9.05;5.97;;;;;;;24.11;34.29;97210.38;4347410;33;34775;-58
2023/11/28 10:22:34;;;;;;;8.60;5.47;;;;;;;24.09;34.32;97216.09;4346205;33;33502;-62
2023/11/28 10:25:11;;;;;;;7.87;5.78;;;;;;;24.08;34.36;97211.75;4346035;33;33975;-63
2023/11/28 10:27:42;;;;;;;8.32;5.87;;;;;;;24.06;34.41;97208.53;4346112;33;33890;-62
2023/11/28 10:30:11;;;;;;;8.02;4.78;;;;;;;24.05;34.45;97214.25;4344932;33;33494;-60
2023/11/28 10:32:38;;;;;;;8.07;5.25;;;;;;;24.03;34.50;97219.19;4347254;33;33969;-62
2023/11/28 10:35:06;;;;;;;7.53;5.40;;;;;;;23.99;34.64;97215.44;4347353;33;34716;-62
2023/11/28 10:37:37;;;;;;;7.80;4.80;;;;;;;23.98;34.65;97205.66;4344398;33;34812;-61
2023/11/28 10:40:05;;;;;;;8.43;5.60;;;;;;;23.95;34.69;97209.75;4346177;33;34336;-62
2023/11/28 10:42:33;;;;;;;8.38;5.57;;;;;;;23.95;34.70;97206.22;4346012;33;33804;-61
2023/11/28 10:45:01;;;;;;;8.25;5.45;;;;;;;23.94;34.88;97208.12;4338587;33;33985;-62
2023/11/28 10:47:30;;;;;;;7.47;5.33;;;;;;;23.97;34.95;97202.09;4343645;33;33712;-61
2023/11/28 10:49:57;;;;;;;7.10;5.05;;;;;;;24.09;34.89;97201.66;4334071;33;34147;-63
2023/11/28 10:52:26;;;;;;;6.90;4.80;;;;;;;24.22;34.82;97194.69;4345345;33;34191;-63
2023/11/28 10:54:55;;;;;;;9.10;5.07;;;;;;;24.34;34.76;97189.59;4347380;33;34549;-62
2023/11/28 10:57:26;;;;;;;7.60;4.85;;;;;;;24.47;34.66;97188.87;4345886;33;34815;-62
2023/11/28 11:00:01;;;;;;;8.10;4.90;;;;;;;24.59;34.58;97191.97;4335319;33;34210;-62
2023/11/28 11:02:30;;;;;;;6.75;4.60;;;;;;;24.72;34.45;97189.59;4339690;33;33680;-62
2023/11/28 11:04:58;;;;;;;7.57;5.20;;;;;;;24.84;34.34;97196.19;4310455;33;33893;-62
2023/11/28 11:07:25;;;;;;;8.43;5.18;;;;;;;24.93;34.23;97197.13;4317930;33;34840;-63
2023/11/28 11:09:53;;;;;;;7.93;5.22;;;;;;;25.03;34.13;97193.41;4319012;33;33727;-62
2023/11/28 11:12:21;;;;;;;7.70;5.07;;;;;;;25.14;34.04;97194.91;4319200;33;34871;-63
2023/11/28 11:15:01;;;;;;;6.65;4.47;;;;;;;25.21;33.96;97188.22;4319224;33;33745;-63
2023/11/28 11:17:48;;;;;;;6.53;4.70;;;;;;;25.29;33.88;97191.06;4307679;33;34969;-62
2023/11/28 11:20:15;;;;;;;7.80;4.50;;;;;;;25.33;33.82;97186.63;4332445;33;34095;-62
2023/11/28 11:22:46;;;;;;;6.95;4.60;;;;;;;25.39;33.77;97190.06;4307387;33;33497;-62
2023/11/28 11:25:13;;;;;;;7.00;4.55;;;;;;;25.46;33.74;97185.03;4318920;33;34030;-62
2023/11/28 11:27:41;;;;;;;7.07;4.43;;;;;;;25.55;33.68;97188.66;4332700;33;34725;-62
2023/11/28 11:30:09;;;;;;;6.57;4.65;;;;;;;25.63;33.61;97189.88;4332453;33;34833;-62
2023/11/28 11:32:37;;;;;;;6.30;4.12;;;;;;;25.71;33.54;97186.44;4332163;33;34298;-62
2023/11/28 11:35:06;;;;;;;7.05;4.32;;;;;;;25.81;33.47;97183.53;4331960;33;34558;-62